Arnold, North Carolina
Current Conditions -  °F | °C
As of 5:55 PM on Sunday 21 Dec 2014 (Local Time) from KEXX Reporting Station
Broken Clouds Broken Clouds  
Wind Chill: 44°   Ceiling: 4000
Heat Index: 44°   Visibility: 10mi
Dew Point: 36°   Wind: 0mph
Humidity: 73%   Direction: NA
Pressure: 30.21"   Gusts: NA
Location:  35.7974°N, 80.2541°W
Report Text: KEXX 212255Z AUTO 00000KT 10SM BKN040 BKN048 07/02 A3021 RMK AO2 T00660020
Loading
Personal Weather Stations






























Interactive Weather Map New forecast layout! Learn more

10-Day Weather Forecast

Advertisements
Track Severe Weather on mobile